Weather at Gjakovë Air Base

Public forecast

Using degrees Celsius for public forecast. Weather courtesy of forecast.io.

Closest aviation weather report (METAR) to Gjakovë Air Base

Closest report is Priština Adem Jashari International Airport, 28.2 nm (52.1 km) ENE.

2024/04/18 03:30 (retrieved 7 minutes ago)

BKPR 180330Z 16003KT 9999 FEW010 SCT020 BKN065 04/02 Q1005 NOSIG

Closest aviation forecast (TAF) to Gjakovë Air Base

Forecast is more than 12 hours old.

Closest forecast is Kukës International Airport, 24.0 nm (44.4 km) S.

2024/04/17 12:00 Ammendment (retrieved 16 hours ago)

TAF AMD LAKU 171636Z 1712/1812 CNL